Time;durP1;ratioP1;P1;durP2;ratioP2;P2;SDS_P1;SDS_P2;PMS_P1;PMS_P2;Temp;Humidity;BMP_temperature;BMP_pressure;BME280_temperature;BME280_humidity;BME280_pressure;Samples;Min_cycle;Max_cycle;Signal;HPM_P1;HPM_P2
2022/03/27 00:02:21;;;;;;;15.95;10.25;;;;;;;;;;5014042;28;20041;-77
2022/03/27 00:04:49;;;;;;;13.32;9.65;;;;;;;;;;5020076;28;20052;-77
2022/03/27 00:07:16;;;;;;;14.80;9.80;;;;;;;;;;5014618;28;20064;-77
2022/03/27 00:09:43;;;;;;;11.68;9.68;;;;;;;;;;5018359;28;20049;-77
2022/03/27 00:12:11;;;;;;;14.70;10.85;;;;;;;;;;5019120;28;20045;-77
2022/03/27 00:14:38;;;;;;;14.07;10.18;;;;;;;;;;5019466;28;20108;-77
2022/03/27 00:17:06;;;;;;;18.02;10.80;;;;;;;;;;5019195;28;20092;-77
2022/03/27 00:19:33;;;;;;;18.50;10.80;;;;;;;;;;5019178;28;20045;-77
2022/03/27 00:22:00;;;;;;;15.30;10.38;;;;;;;;;;5001115;28;20061;-77
2022/03/27 00:24:32;;;;;;;16.67;10.30;;;;;;;;;;5019456;28;20042;-77
2022/03/27 00:26:59;;;;;;;14.23;10.10;;;;;;;;;;5020733;28;20030;-77
2022/03/27 00:29:26;;;;;;;14.27;9.85;;;;;;;;;;5017291;28;20050;-77
2022/03/27 00:31:54;;;;;;;15.07;10.85;;;;;;;;;;5020327;28;20046;-77
2022/03/27 00:34:25;;;;;;;15.50;9.43;;;;;;;;;;5020293;28;20053;-77
2022/03/27 00:36:52;;;;;;;20.35;11.02;;;;;;;;;;5020678;28;20076;-77
2022/03/27 00:39:19;;;;;;;12.85;9.93;;;;;;;;;;5019139;28;20045;-77
2022/03/27 00:41:47;;;;;;;15.57;10.02;;;;;;;;;;5016501;28;20822;-77
2022/03/27 00:44:15;;;;;;;14.82;10.77;;;;;;;;;;5021183;28;20491;-77
2022/03/27 00:46:42;;;;;;;18.42;11.15;;;;;;;;;;5013038;28;20042;-77
2022/03/27 00:49:09;;;;;;;18.45;11.93;;;;;;;;;;5012129;28;20041;-77
2022/03/27 00:51:36;;;;;;;12.95;9.57;;;;;;;;;;5015186;28;20049;-77
2022/03/27 00:54:04;;;;;;;16.75;11.32;;;;;;;;;;5001712;28;20045;-78
2022/03/27 00:56:32;;;;;;;15.02;10.68;;;;;;;;;;5022405;28;20042;-78
2022/03/27 00:58:59;;;;;;;16.02;10.70;;;;;;;;;;5023076;28;20119;-77
2022/03/27 01:01:35;;;;;;;15.20;11.13;;;;;;;;;;5018650;28;20046;-77
2022/03/27 01:04:03;;;;;;;16.20;10.52;;;;;;;;;;5020298;28;20037;-77
2022/03/27 01:06:41;;;;;;;15.32;10.20;;;;;;;;;;5020988;28;20096;-78
2022/03/27 01:11:55;;;;;;;17.15;9.95;;;;;;;;;;5018346;28;20057;-77
2022/03/27 01:14:27;;;;;;;12.68;8.75;;;;;;;;;;4983057;28;20107;-77
2022/03/27 01:16:59;;;;;;;13.77;10.27;;;;;;;;;;5015956;28;20045;-77
2022/03/27 01:19:26;;;;;;;17.42;10.05;;;;;;;;;;5019095;28;20049;-77
2022/03/27 01:21:54;;;;;;;13.25;9.68;;;;;;;;;;5073498;23;20045;-79
2022/03/27 01:24:21;;;;;;;16.08;9.65;;;;;;;;;;5110583;28;20024;-79
2022/03/27 01:26:49;;;;;;;14.48;9.10;;;;;;;;;;5108644;28;20032;-79
2022/03/27 01:29:17;;;;;;;13.88;9.45;;;;;;;;;;5114146;28;20030;-79
2022/03/27 01:31:44;;;;;;;15.23;9.57;;;;;;;;;;5108972;28;20036;-78
2022/03/27 01:34:12;;;;;;;14.75;9.65;;;;;;;;;;5107296;28;20058;-79
2022/03/27 01:36:39;;;;;;;11.82;8.82;;;;;;;;;;5116559;28;20059;-79
2022/03/27 01:39:08;;;;;;;17.55;10.32;;;;;;;;;;5116592;28;20043;-77
2022/03/27 01:41:36;;;;;;;16.33;9.02;;;;;;;;;;5112999;28;20040;-78
2022/03/27 01:44:07;;;;;;;16.50;10.45;;;;;;;;;;5118681;28;20032;-79
2022/03/27 01:46:37;;;;;;;15.30;9.00;;;;;;;;;;5097364;28;20062;-79
2022/03/27 01:49:06;;;;;;;13.32;9.85;;;;;;;;;;5108263;28;20039;-79
2022/03/27 01:51:34;;;;;;;14.95;9.27;;;;;;;;;;5096232;28;20051;-78
2022/03/27 01:54:01;;;;;;;13.77;9.38;;;;;;;;;;5095428;28;20089;-78
2022/03/27 01:56:30;;;;;;;14.07;9.45;;;;;;;;;;5091089;28;20040;-78
2022/03/27 01:58:57;;;;;;;13.98;9.57;;;;;;;;;;5093005;28;20140;-78
2022/03/27 02:01:24;;;;;;;14.02;9.60;;;;;;;;;;5088355;28;20605;-78
2022/03/27 02:03:54;;;;;;;13.73;9.32;;;;;;;;;;5086733;28;20080;-77
2022/03/27 02:06:23;;;;;;;13.00;8.60;;;;;;;;;;5089764;28;20040;-79
2022/03/27 02:08:51;;;;;;;12.40;8.85;;;;;;;;;;5072810;28;20044;-78
2022/03/27 02:11:19;;;;;;;13.43;9.10;;;;;;;;;;5086701;28;20050;-78
2022/03/27 02:13:47;;;;;;;13.20;8.93;;;;;;;;;;5086377;28;20498;-79
2022/03/27 02:16:14;;;;;;;12.18;8.95;;;;;;;;;;5068503;28;20501;-79
2022/03/27 02:18:42;;;;;;;12.48;8.23;;;;;;;;;;5087668;28;20040;-79
2022/03/27 02:21:10;;;;;;;13.23;8.60;;;;;;;;;;5082989;28;20584;-79
2022/03/27 02:23:37;;;;;;;13.45;9.10;;;;;;;;;;5083155;28;20437;-79
2022/03/27 02:26:05;;;;;;;12.80;8.88;;;;;;;;;;5088000;28;20123;-79
2022/03/27 02:28:33;;;;;;;12.25;8.75;;;;;;;;;;5086657;28;20471;-79
2022/03/27 02:31:00;;;;;;;14.70;8.75;;;;;;;;;;5087346;28;20048;-79
2022/03/27 02:33:28;;;;;;;16.38;9.30;;;;;;;;;;5086701;28;20503;-79
2022/03/27 02:35:55;;;;;;;12.20;8.90;;;;;;;;;;5085073;28;20039;-80
2022/03/27 02:38:23;;;;;;;14.48;9.82;;;;;;;;;;5080367;28;20068;-79
2022/03/27 02:40:50;;;;;;;17.98;9.00;;;;;;;;;;5083447;28;20044;-78
2022/03/27 02:43:18;;;;;;;10.90;8.52;;;;;;;;;;5084672;28;20479;-79
2022/03/27 02:45:45;;;;;;;10.55;8.30;;;;;;;;;;5083675;28;20676;-79
2022/03/27 02:48:12;;;;;;;14.63;9.27;;;;;;;;;;5083858;28;20048;-79
2022/03/27 02:50:43;;;;;;;14.18;8.52;;;;;;;;;;5083550;28;20036;-79
2022/03/27 02:53:12;;;;;;;16.23;9.63;;;;;;;;;;5065303;28;20036;-79
2022/03/27 02:55:39;;;;;;;14.70;9.07;;;;;;;;;;5080458;28;20085;-79
2022/03/27 02:58:07;;;;;;;20.27;10.45;;;;;;;;;;5085716;28;20090;-79
2022/03/27 03:00:34;;;;;;;18.67;11.10;;;;;;;;;;5085488;28;20608;-79
2022/03/27 03:03:01;;;;;;;11.40;8.73;;;;;;;;;;5085631;28;20036;-79
2022/03/27 03:05:29;;;;;;;13.13;9.10;;;;;;;;;;5084513;28;20036;-80
2022/03/27 03:07:57;;;;;;;14.80;8.90;;;;;;;;;;5083804;28;20086;-79
2022/03/27 03:10:25;;;;;;;13.45;9.30;;;;;;;;;;5084126;28;20234;-79
2022/03/27 03:12:52;;;;;;;14.65;9.02;;;;;;;;;;5084798;28;20051;-79
2022/03/27 03:15:20;;;;;;;12.05;8.52;;;;;;;;;;5082874;28;20048;-79
2022/03/27 03:17:47;;;;;;;14.77;8.82;;;;;;;;;;5084344;28;20607;-80
2022/03/27 03:20:14;;;;;;;13.75;9.07;;;;;;;;;;5084272;28;20044;-79
2022/03/27 03:22:42;;;;;;;12.55;8.82;;;;;;;;;;5083965;28;20043;-79
2022/03/27 03:25:09;;;;;;;11.80;8.60;;;;;;;;;;5082496;28;20450;-79
2022/03/27 03:27:37;;;;;;;13.82;8.88;;;;;;;;;;5084401;28;20036;-79
2022/03/27 03:30:05;;;;;;;18.33;10.07;;;;;;;;;;5084529;28;20506;-79
2022/03/27 03:32:36;;;;;;;16.48;10.05;;;;;;;;;;5083838;28;20058;-78
2022/03/27 03:35:07;;;;;;;12.68;8.73;;;;;;;;;;5084845;28;20559;-78
2022/03/27 03:37:43;;;;;;;12.75;8.85;;;;;;;;;;5098324;28;20105;-79
2022/03/27 03:40:10;;;;;;;15.65;9.30;;;;;;;;;;5065021;28;20673;-79
2022/03/27 03:42:38;;;;;;;12.68;8.68;;;;;;;;;;5084152;28;20036;-78
2022/03/27 03:45:05;;;;;;;13.23;9.50;;;;;;;;;;5083825;28;20040;-79
2022/03/27 03:47:33;;;;;;;17.95;9.60;;;;;;;;;;5083874;28;20036;-78
2022/03/27 03:50:00;;;;;;;14.20;9.60;;;;;;;;;;5083672;28;20055;-79
2022/03/27 03:52:28;;;;;;;16.23;9.45;;;;;;;;;;5082307;28;20075;-79
2022/03/27 03:54:55;;;;;;;14.30;9.80;;;;;;;;;;5080672;28;20529;-79
2022/03/27 03:57:22;;;;;;;17.67;9.52;;;;;;;;;;5083843;28;20043;-78
2022/03/27 03:59:50;;;;;;;17.83;8.68;;;;;;;;;;5084497;28;20503;-78
2022/03/27 04:02:19;;;;;;;15.55;9.82;;;;;;;;;;5084075;28;20643;-79
2022/03/27 04:04:46;;;;;;;15.98;8.90;;;;;;;;;;5078868;28;20040;-79
2022/03/27 04:07:14;;;;;;;12.07;8.68;;;;;;;;;;5082341;28;20738;-79
2022/03/27 04:09:41;;;;;;;13.65;8.52;;;;;;;;;;5082197;28;20402;-79
2022/03/27 04:12:09;;;;;;;17.25;10.20;;;;;;;;;;5083922;28;20532;-79
2022/03/27 04:14:36;;;;;;;13.52;8.60;;;;;;;;;;5082417;28;20040;-79
2022/03/27 04:17:04;;;;;;;14.18;8.98;;;;;;;;;;5079008;28;20059;-78
2022/03/27 04:19:31;;;;;;;13.55;8.32;;;;;;;;;;5085210;28;20044;-79
2022/03/27 04:21:59;;;;;;;12.73;8.68;;;;;;;;;;5088518;28;20048;-79
2022/03/27 04:24:26;;;;;;;13.35;9.43;;;;;;;;;;5088912;28;20052;-79
2022/03/27 04:26:53;;;;;;;18.27;8.48;;;;;;;;;;5087434;28;20048;-78
2022/03/27 04:29:21;;;;;;;12.60;8.98;;;;;;;;;;5082585;28;20665;-78
2022/03/27 04:31:48;;;;;;;12.38;8.18;;;;;;;;;;5082427;28;20056;-78
2022/03/27 04:34:16;;;;;;;14.10;8.75;;;;;;;;;;5080846;28;20044;-78
2022/03/27 04:36:43;;;;;;;11.88;8.52;;;;;;;;;;5087692;28;20207;-79
2022/03/27 04:39:10;;;;;;;15.90;10.07;;;;;;;;;;5084727;28;20063;-79
2022/03/27 04:41:38;;;;;;;15.68;10.07;;;;;;;;;;5087018;28;20051;-78
2022/03/27 04:44:07;;;;;;;13.25;10.05;;;;;;;;;;5084661;28;20044;-79
2022/03/27 04:46:34;;;;;;;12.73;9.70;;;;;;;;;;5073808;28;20044;-78
2022/03/27 04:49:02;;;;;;;16.98;9.80;;;;;;;;;;5088363;28;20035;-79
2022/03/27 04:51:29;;;;;;;13.40;8.63;;;;;;;;;;5086076;28;20137;-79
2022/03/27 04:53:57;;;;;;;12.40;8.70;;;;;;;;;;5082638;28;20272;-79
2022/03/27 04:56:25;;;;;;;12.85;9.50;;;;;;;;;;5079791;28;20057;-80
2022/03/27 04:58:52;;;;;;;18.13;9.68;;;;;;;;;;5081691;28;20135;-80
2022/03/27 05:01:22;;;;;;;19.00;10.55;;;;;;;;;;5086901;28;20071;-79
2022/03/27 05:03:54;;;;;;;16.08;11.02;;;;;;;;;;5092351;28;20048;-78
2022/03/27 05:06:22;;;;;;;16.83;10.38;;;;;;;;;;5091293;28;20047;-78
2022/03/27 05:08:51;;;;;;;13.55;8.57;;;;;;;;;;5091356;28;20147;-78
2022/03/27 05:11:18;;;;;;;16.10;10.30;;;;;;;;;;5064897;28;20139;-80
2022/03/27 05:13:46;;;;;;;20.38;11.55;;;;;;;;;;5076485;28;20033;-79
2022/03/27 05:16:13;;;;;;;14.45;9.40;;;;;;;;;;5076371;28;20047;-79
2022/03/27 05:18:41;;;;;;;20.83;10.63;;;;;;;;;;5076257;28;20073;-79
2022/03/27 05:21:08;;;;;;;14.30;9.63;;;;;;;;;;5076137;28;20044;-79
2022/03/27 05:23:36;;;;;;;14.93;9.95;;;;;;;;;;5075938;28;20033;-79
2022/03/27 05:26:03;;;;;;;15.93;9.90;;;;;;;;;;5074895;28;20100;-80
2022/03/27 05:28:32;;;;;;;14.23;9.15;;;;;;;;;;5074955;28;20441;-80
2022/03/27 05:30:59;;;;;;;14.75;9.35;;;;;;;;;;5076076;28;20110;-80
2022/03/27 05:33:26;;;;;;;14.88;9.57;;;;;;;;;;5076003;28;20049;-79
2022/03/27 05:35:54;;;;;;;18.08;9.68;;;;;;;;;;5075936;28;20063;-79
2022/03/27 05:38:21;;;;;;;15.38;9.27;;;;;;;;;;5076294;28;20048;-78
2022/03/27 05:40:48;;;;;;;17.75;10.43;;;;;;;;;;5075757;28;20048;-78
2022/03/27 05:43:18;;;;;;;13.02;9.43;;;;;;;;;;5074641;28;20040;-79
2022/03/27 05:45:46;;;;;;;14.60;9.70;;;;;;;;;;5075547;28;20071;-79
2022/03/27 05:48:17;;;;;;;19.80;11.85;;;;;;;;;;5075706;28;20049;-82
2022/03/27 05:51:02;;;;;;;17.45;11.25;;;;;;;;;;5060756;28;20037;-80
2022/03/27 05:53:32;;;;;;;15.63;9.65;;;;;;;;;;5075901;28;20093;-80
2022/03/27 05:56:03;;;;;;;15.15;10.38;;;;;;;;;;5077213;28;20093;-76
2022/03/27 05:58:30;;;;;;;13.38;9.82;;;;;;;;;;5083665;28;20044;-78
2022/03/27 06:00:58;;;;;;;15.13;10.27;;;;;;;;;;5087249;28;20068;-78
2022/03/27 06:03:25;;;;;;;16.13;10.50;;;;;;;;;;5089067;28;20047;-79
2022/03/27 06:05:53;;;;;;;16.58;11.90;;;;;;;;;;5084220;28;20051;-79
2022/03/27 06:08:21;;;;;;;12.35;9.80;;;;;;;;;;5082697;28;20040;-79
2022/03/27 06:10:49;;;;;;;13.30;9.60;;;;;;;;;;5082297;28;20481;-79
2022/03/27 06:13:17;;;;;;;17.00;10.20;;;;;;;;;;5083717;28;20048;-79
2022/03/27 06:15:44;;;;;;;13.43;9.93;;;;;;;;;;5083674;28;20040;-78
2022/03/27 06:18:12;;;;;;;12.23;9.75;;;;;;;;;;5082068;28;20044;-79
2022/03/27 06:20:41;;;;;;;15.88;10.25;;;;;;;;;;5082042;28;20131;-78
2022/03/27 06:23:08;;;;;;;13.30;9.57;;;;;;;;;;5082767;28;20036;-79
2022/03/27 06:25:35;;;;;;;13.73;10.93;;;;;;;;;;5081995;28;20051;-79
2022/03/27 06:28:04;;;;;;;16.38;9.88;;;;;;;;;;5079918;28;20051;-79
2022/03/27 06:30:32;;;;;;;18.83;11.25;;;;;;;;;;5083133;28;20044;-79
2022/03/27 06:33:00;;;;;;;16.27;10.45;;;;;;;;;;5082772;28;20644;-78
2022/03/27 06:35:28;;;;;;;17.55;10.48;;;;;;;;;;5090631;28;20051;-79
2022/03/27 06:37:56;;;;;;;12.40;9.40;;;;;;;;;;5088833;28;20427;-79
2022/03/27 06:40:23;;;;;;;18.30;10.55;;;;;;;;;;5086755;28;20048;-79
2022/03/27 06:42:51;;;;;;;18.83;11.60;;;;;;;;;;5081932;28;20036;-79
2022/03/27 06:45:24;;;;;;;16.10;10.95;;;;;;;;;;5085097;28;20046;-80
2022/03/27 06:47:52;;;;;;;17.33;11.63;;;;;;;;;;5085367;28;20131;-79
2022/03/27 06:50:21;;;;;;;13.27;9.80;;;;;;;;;;5085874;28;20031;-79
2022/03/27 06:52:50;;;;;;;17.33;10.98;;;;;;;;;;5089206;28;20047;-79
2022/03/27 06:55:18;;;;;;;17.17;10.45;;;;;;;;;;5080349;28;20045;-78
2022/03/27 06:57:45;;;;;;;17.88;10.63;;;;;;;;;;5079098;28;20094;-78
2022/03/27 07:03:03;;;;;;;17.90;10.77;;;;;;;;;;5082458;28;20040;-78
2022/03/27 07:05:32;;;;;;;14.20;9.73;;;;;;;;;;5079520;28;20075;-78
2022/03/27 07:08:07;;;;;;;16.27;9.63;;;;;;;;;;5084373;28;20169;-78
2022/03/27 07:10:34;;;;;;;15.52;10.07;;;;;;;;;;5081004;28;20036;-78
2022/03/27 07:13:02;;;;;;;18.83;9.50;;;;;;;;;;5085239;28;20048;-77
2022/03/27 07:15:29;;;;;;;17.02;11.52;;;;;;;;;;5080441;28;20043;-78
2022/03/27 07:17:57;;;;;;;18.95;12.05;;;;;;;;;;5086861;28;20072;-78
2022/03/27 07:20:26;;;;;;;15.07;10.77;;;;;;;;;;5082782;28;20076;-78
2022/03/27 07:22:54;;;;;;;19.48;10.43;;;;;;;;;;5104316;22;20051;-75
2022/03/27 07:25:23;;;;;;;16.75;10.65;;;;;;;;;;5097021;28;20632;-75
2022/03/27 07:27:50;;;;;;;19.35;10.80;;;;;;;;;;5081602;28;20058;-74
2022/03/27 07:30:18;;;;;;;13.80;10.30;;;;;;;;;;5081829;28;20135;-73
2022/03/27 07:32:45;;;;;;;18.13;10.30;;;;;;;;;;5099809;28;20050;-73
2022/03/27 07:35:17;;;;;;;16.90;10.32;;;;;;;;;;5099714;28;20040;-75
2022/03/27 07:37:44;;;;;;;;;;;;;;;;;;5101209;28;20514;-73
2022/03/27 07:40:13;;;;;;;16.63;9.77;;;;;;;;;;5100587;28;20522;-75
2022/03/27 07:42:41;;;;;;;14.57;9.77;;;;;;;;;;5083035;28;20170;-75
2022/03/27 07:45:11;;;;;;;17.48;10.48;;;;;;;;;;5092422;28;20043;-73
2022/03/27 07:47:39;;;;;;;15.80;10.60;;;;;;;;;;5105467;28;20054;-75
2022/03/27 07:50:54;;;;;;;14.90;10.82;;;;;;;;;;5084116;28;20036;-75
2022/03/27 07:53:19;;;;;;;16.63;11.52;;;;;;;;;;5091567;28;20044;-75
2022/03/27 07:55:46;;;;;;;13.57;9.93;;;;;;;;;;5099683;28;20435;-74
2022/03/27 07:58:14;;;;;;;14.65;10.80;;;;;;;;;;5109111;28;20082;-76
2022/03/27 08:00:41;;;;;;;17.05;9.70;;;;;;;;;;5105440;28;20043;-74
2022/03/27 08:03:08;;;;;;;17.73;11.00;;;;;;;;;;5062016;28;20040;-75
2022/03/27 08:05:36;;;;;;;18.27;10.75;;;;;;;;;;5069448;28;20044;-74
2022/03/27 08:08:04;;;;;;;15.77;10.93;;;;;;;;;;5108919;28;20035;-75
2022/03/27 08:10:31;;;;;;;13.57;10.50;;;;;;;;;;5091991;28;20071;-76
2022/03/27 08:12:59;;;;;;;16.05;11.20;;;;;;;;;;5101403;28;20048;-74
2022/03/27 08:15:27;;;;;;;14.90;10.60;;;;;;;;;;5099466;28;20039;-75
2022/03/27 08:17:54;;;;;;;13.52;10.23;;;;;;;;;;5088910;28;20167;-74
2022/03/27 08:20:24;;;;;;;17.17;11.30;;;;;;;;;;5098958;28;20081;-75
2022/03/27 08:22:51;;;;;;;15.80;11.07;;;;;;;;;;5070145;28;20105;-75
2022/03/27 08:28:07;;;;;;;18.00;11.30;;;;;;;;;;5076316;28;20056;-75
2022/03/27 08:30:35;;;;;;;14.48;10.32;;;;;;;;;;5106774;28;20499;-75
2022/03/27 08:33:04;;;;;;;13.10;10.20;;;;;;;;;;5108170;28;20054;-75
2022/03/27 08:35:31;;;;;;;18.20;10.02;;;;;;;;;;5104447;28;20063;-74
2022/03/27 08:37:59;;;;;;;13.77;10.60;;;;;;;;;;5089015;28;20044;-76
2022/03/27 08:40:26;;;;;;;18.42;10.80;;;;;;;;;;5104858;28;20036;-76
2022/03/27 08:42:53;;;;;;;16.52;11.13;;;;;;;;;;5094167;28;20044;-74
2022/03/27 08:45:21;;;;;;;16.40;10.55;;;;;;;;;;5078096;28;20507;-77
2022/03/27 08:47:49;;;;;;;15.25;10.63;;;;;;;;;;5073109;28;20032;-75
2022/03/27 08:50:29;;;;;;;13.05;10.18;;;;;;;;;;5107458;28;20130;-75
2022/03/27 08:52:57;;;;;;;14.38;10.00;;;;;;;;;;5107266;28;20487;-77
2022/03/27 08:55:46;;;;;;;13.77;10.55;;;;;;;;;;5105161;28;20047;-76
2022/03/27 08:58:14;;;;;;;13.27;10.40;;;;;;;;;;5105099;28;20586;-76
2022/03/27 09:00:43;;;;;;;11.20;10.00;;;;;;;;;;5095970;28;20047;-74
2022/03/27 09:03:11;;;;;;;15.02;10.27;;;;;;;;;;5088912;28;20051;-74
2022/03/27 09:05:39;;;;;;;11.90;10.52;;;;;;;;;;5102959;28;20495;-75
2022/03/27 09:08:09;;;;;;;11.25;9.88;;;;;;;;;;5104701;28;20257;-74
2022/03/27 09:10:38;;;;;;;14.38;9.95;;;;;;;;;;5103012;28;20126;-75
2022/03/27 09:13:09;;;;;;;11.48;10.10;;;;;;;;;;5081802;28;20074;-76
2022/03/27 09:15:37;;;;;;;13.85;9.95;;;;;;;;;;5105970;28;20040;-75
2022/03/27 09:18:09;;;;;;;16.30;10.20;;;;;;;;;;5103811;28;20390;-75
2022/03/27 09:20:41;;;;;;;10.07;9.00;;;;;;;;;;5103213;28;20118;-76
2022/03/27 09:23:13;;;;;;;13.05;9.55;;;;;;;;;;5087196;28;20068;-76
2022/03/27 09:25:41;;;;;;;;;;;;;;;;;;5101269;28;20381;-76
2022/03/27 09:28:08;;;;;;;10.27;9.13;;;;;;;;;;5106563;28;19947;-75
2022/03/27 09:30:36;;;;;;;11.35;9.13;;;;;;;;;;5099561;28;20500;-75
2022/03/27 09:33:04;;;;;;;9.20;8.30;;;;;;;;;;5101894;28;20044;-75
2022/03/27 09:35:33;;;;;;;8.98;7.68;;;;;;;;;;5104627;28;20036;-76
2022/03/27 09:38:01;;;;;;;10.57;8.30;;;;;;;;;;5096764;28;20055;-74
2022/03/27 09:40:35;;;;;;;7.50;6.80;;;;;;;;;;5089753;28;20053;-75
2022/03/27 09:43:10;;;;;;;6.82;5.82;;;;;;;;;;5092658;28;20336;-75
2022/03/27 09:45:38;;;;;;;6.35;5.75;;;;;;;;;;5098085;28;20040;-76
2022/03/27 09:48:09;;;;;;;5.25;4.80;;;;;;;;;;5098778;28;20043;-75
2022/03/27 09:50:37;;;;;;;4.97;4.50;;;;;;;;;;5088720;28;20028;-76
2022/03/27 09:53:20;;;;;;;6.25;4.30;;;;;;;;;;5109636;28;20039;-75
2022/03/27 09:55:52;;;;;;;3.63;2.97;;;;;;;;;;5100677;28;20043;-76
2022/03/27 09:58:38;;;;;;;5.15;4.45;;;;;;;;;;5108511;28;20104;-76
2022/03/27 10:01:08;;;;;;;5.85;4.60;;;;;;;;;;5084694;28;20434;-75
2022/03/27 10:03:37;;;;;;;;;;;;;;;;;;5103087;28;20206;-75
2022/03/27 10:06:04;;;;;;;4.95;4.45;;;;;;;;;;5093906;28;20318;-74
2022/03/27 10:08:32;;;;;;;5.40;4.55;;;;;;;;;;5090605;28;20036;-75
2022/03/27 10:10:59;;;;;;;8.45;5.53;;;;;;;;;;5089304;28;20052;-75
2022/03/27 10:13:31;;;;;;;5.40;4.65;;;;;;;;;;5078570;28;20094;-74
2022/03/27 10:15:59;;;;;;;7.13;4.53;;;;;;;;;;5094271;28;20086;-75
2022/03/27 10:18:27;;;;;;;6.45;5.60;;;;;;;;;;5094911;28;20063;-73
2022/03/27 10:20:57;;;;;;;7.13;6.43;;;;;;;;;;5093959;28;20526;-74
2022/03/27 10:23:27;;;;;;;5.57;5.03;;;;;;;;;;5091599;28;20747;-74
2022/03/27 10:26:06;;;;;;;6.38;5.20;;;;;;;;;;5105207;22;20046;31
2022/03/27 10:28:38;;;;;;;8.30;5.40;;;;;;;;;;5008541;28;20050;-77
2022/03/27 10:31:06;;;;;;;7.65;5.07;;;;;;;;;;5009247;28;20666;-77
2022/03/27 10:33:34;;;;;;;6.30;4.80;;;;;;;;;;5013493;28;20038;-78
2022/03/27 10:36:31;;;;;;;7.47;5.28;;;;;;;;;;5018150;28;20126;-77
2022/03/27 10:39:08;;;;;;;7.97;6.38;;;;;;;;;;5020135;28;20095;-76
2022/03/27 10:41:39;;;;;;;9.80;8.55;;;;;;;;;;5019777;28;20050;-77
2022/03/27 10:44:18;;;;;;;10.70;8.43;;;;;;;;;;5021197;28;20045;-76
2022/03/27 10:47:05;;;;;;;11.80;8.75;;;;;;;;;;5020467;28;20504;-77
2022/03/27 10:49:33;;;;;;;12.32;8.63;;;;;;;;;;5019643;28;20404;-78
2022/03/27 10:52:06;;;;;;;12.10;9.02;;;;;;;;;;5020682;28;20107;-77
2022/03/27 10:54:54;;;;;;;8.73;7.72;;;;;;;;;;5021365;28;20041;-77
2022/03/27 10:57:35;;;;;;;14.55;8.70;;;;;;;;;;5019540;28;20049;-76
2022/03/27 11:00:07;;;;;;;9.82;8.30;;;;;;;;;;5020805;28;20051;-77
2022/03/27 11:02:51;;;;;;;13.20;8.93;;;;;;;;;;5019603;28;20068;-77
2022/03/27 11:05:31;;;;;;;9.10;7.78;;;;;;;;;;5002398;28;20560;-77
2022/03/27 11:08:17;;;;;;;9.43;7.38;;;;;;;;;;5022029;28;20505;-77
2022/03/27 11:10:49;;;;;;;10.65;8.73;;;;;;;;;;5019179;28;20049;-77
2022/03/27 11:13:29;;;;;;;11.13;7.85;;;;;;;;;;5019040;28;20060;-77
2022/03/27 11:16:10;;;;;;;11.25;7.90;;;;;;;;;;5017582;28;20131;-77
2022/03/27 11:18:43;;;;;;;11.20;8.02;;;;;;;;;;5017926;28;20057;-77
2022/03/27 11:21:11;;;;;;;11.48;8.43;;;;;;;;;;5015791;28;20532;-77
2022/03/27 11:23:39;;;;;;;11.68;8.27;;;;;;;;;;5019700;28;20044;-77
2022/03/27 11:26:22;;;;;;;8.73;7.78;;;;;;;;;;5019880;28;20041;-77
2022/03/27 11:28:51;;;;;;;8.10;7.32;;;;;;;;;;5021165;28;20123;-78
2022/03/27 11:31:23;;;;;;;9.27;8.00;;;;;;;;;;5019873;28;20037;-77
2022/03/27 11:34:20;;;;;;;11.38;8.50;;;;;;;;;;5022071;28;20052;-77
2022/03/27 11:37:10;;;;;;;11.25;8.18;;;;;;;;;;5008007;28;20045;-77
2022/03/27 11:39:38;;;;;;;9.05;8.10;;;;;;;;;;5019356;28;20048;-77
2022/03/27 11:42:24;;;;;;;14.18;8.70;;;;;;;;;;5017976;28;20045;-77
2022/03/27 11:45:07;;;;;;;10.73;7.82;;;;;;;;;;5019278;28;20046;-77
2022/03/27 11:47:40;;;;;;;10.13;8.60;;;;;;;;;;5018553;28;20037;-78
2022/03/27 11:50:08;;;;;;;10.75;7.88;;;;;;;;;;5019350;28;20049;-78
2022/03/27 11:52:36;;;;;;;9.13;8.23;;;;;;;;;;5018784;28;20037;-77
2022/03/27 11:55:05;;;;;;;11.15;8.27;;;;;;;;;;5017956;28;20037;-77
2022/03/27 11:57:46;;;;;;;9.93;8.18;;;;;;;;;;5017480;28;20050;-78
2022/03/27 12:00:14;;;;;;;11.32;8.18;;;;;;;;;;5018779;28;20049;-77
2022/03/27 12:02:43;;;;;;;8.40;7.57;;;;;;;;;;5020649;28;20107;-77
2022/03/27 12:05:14;;;;;;;8.93;8.00;;;;;;;;;;5017743;28;20075;-78
2022/03/27 12:07:49;;;;;;;10.50;8.27;;;;;;;;;;5019701;28;20049;-77
2022/03/27 12:10:17;;;;;;;10.20;7.45;;;;;;;;;;5014293;28;20054;-77
2022/03/27 12:13:03;;;;;;;9.45;7.95;;;;;;;;;;5019614;28;20037;-77
2022/03/27 12:15:38;;;;;;;9.15;7.72;;;;;;;;;;5019276;28;20038;-78
2022/03/27 12:18:11;;;;;;;9.90;8.88;;;;;;;;;;5020064;28;20045;-77
2022/03/27 12:20:47;;;;;;;12.18;8.32;;;;;;;;;;5001247;28;20043;-77
2022/03/27 12:23:18;;;;;;;11.48;8.10;;;;;;;;;;5018415;28;20047;-77
2022/03/27 12:25:55;;;;;;;10.32;7.38;;;;;;;;;;5019276;28;20044;-77
2022/03/27 12:31:23;;;;;;;11.45;7.85;;;;;;;;;;5019521;28;20523;-78
2022/03/27 12:33:51;;;;;;;10.15;7.68;;;;;;;;;;5018594;28;20049;-78
2022/03/27 12:36:22;;;;;;;8.40;7.43;;;;;;;;;;5018310;28;20045;-77
2022/03/27 12:38:49;;;;;;;11.25;8.25;;;;;;;;;;5017857;28;20622;-77
2022/03/27 12:41:35;;;;;;;11.70;7.53;;;;;;;;;;5020774;28;20080;-77
2022/03/27 12:44:02;;;;;;;13.20;8.50;;;;;;;;;;5014853;28;20052;-78
2022/03/27 12:46:31;;;;;;;9.57;8.48;;;;;;;;;;5013355;28;20033;-78
2022/03/27 12:48:58;;;;;;;8.65;7.60;;;;;;;;;;5018247;28;20045;-75
2022/03/27 12:51:26;;;;;;;10.10;8.50;;;;;;;;;;5017334;28;20045;-78
2022/03/27 12:54:04;;;;;;;10.18;9.18;;;;;;;;;;5019174;28;20048;-77
2022/03/27 12:56:32;;;;;;;10.15;7.38;;;;;;;;;;5018497;28;20049;-77
2022/03/27 12:59:20;;;;;;;10.15;8.65;;;;;;;;;;5017645;28;20042;-78
2022/03/27 13:01:47;;;;;;;13.93;8.75;;;;;;;;;;5016717;28;20768;-79
2022/03/27 13:04:15;;;;;;;11.30;8.30;;;;;;;;;;5016356;28;20593;-77
2022/03/27 13:06:58;;;;;;;9.38;8.30;;;;;;;;;;5017183;28;20052;-79
2022/03/27 13:09:34;;;;;;;9.35;7.82;;;;;;;;;;5017640;28;20090;-78
2022/03/27 13:12:18;;;;;;;10.85;8.40;;;;;;;;;;5016124;28;20050;-78
2022/03/27 13:14:49;;;;;;;11.45;8.88;;;;;;;;;;5017567;28;20044;-78
2022/03/27 13:17:16;;;;;;;10.65;8.63;;;;;;;;;;5017140;28;20054;-78
2022/03/27 13:19:46;;;;;;;8.57;7.72;;;;;;;;;;5017770;28;20045;-79
2022/03/27 13:22:13;;;;;;;10.18;8.35;;;;;;;;;;5017925;28;20073;-78
2022/03/27 13:24:42;;;;;;;9.77;8.77;;;;;;;;;;5019841;28;20088;-78
2022/03/27 13:27:09;;;;;;;12.90;8.30;;;;;;;;;;5049808;22;20036;-79
2022/03/27 13:29:37;;;;;;;9.50;7.20;;;;;;;;;;5091303;28;20804;-79
2022/03/27 13:32:07;;;;;;;11.15;8.20;;;;;;;;;;5091541;28;20190;-78
2022/03/27 13:34:35;;;;;;;9.80;7.47;;;;;;;;;;5090729;28;20055;-79
2022/03/27 13:37:02;;;;;;;10.43;8.00;;;;;;;;;;5081506;28;20143;-78
2022/03/27 13:39:30;;;;;;;11.77;8.02;;;;;;;;;;5088154;28;20449;-79
2022/03/27 13:44:44;;;;;;;8.10;7.30;;;;;;;;;;5087807;28;20475;-79
2022/03/27 13:47:12;;;;;;;8.38;7.40;;;;;;;;;;5088635;28;20043;-78
2022/03/27 13:49:40;;;;;;;11.23;8.00;;;;;;;;;;5074142;28;20391;-78
2022/03/27 13:52:07;;;;;;;9.93;7.10;;;;;;;;;;5057915;28;20558;-81
2022/03/27 13:54:35;;;;;;;9.60;7.45;;;;;;;;;;5073982;28;20092;-79
2022/03/27 13:57:04;;;;;;;8.10;7.00;;;;;;;;;;5094579;28;20024;-80
2022/03/27 13:59:32;;;;;;;12.57;8.38;;;;;;;;;;5056681;28;20444;-79
2022/03/27 14:02:00;;;;;;;7.70;6.90;;;;;;;;;;5103454;28;20043;-80
2022/03/27 14:04:27;;;;;;;7.85;7.05;;;;;;;;;;5099194;28;20558;-79
2022/03/27 14:06:55;;;;;;;9.50;7.40;;;;;;;;;;5052276;28;20263;-79
2022/03/27 14:09:22;;;;;;;9.70;7.38;;;;;;;;;;5086602;28;20128;-79
2022/03/27 14:11:50;;;;;;;7.43;6.60;;;;;;;;;;5070099;28;20117;-79
2022/03/27 14:14:17;;;;;;;10.45;7.82;;;;;;;;;;5079591;28;20047;-78
2022/03/27 14:16:45;;;;;;;9.80;7.32;;;;;;;;;;5079165;28;20474;-79
2022/03/27 14:19:14;;;;;;;10.00;7.43;;;;;;;;;;5077251;28;20140;-79
2022/03/27 14:21:42;;;;;;;8.38;6.88;;;;;;;;;;5062480;28;20067;-80
2022/03/27 14:24:10;;;;;;;9.45;8.15;;;;;;;;;;5086677;28;20036;-79
2022/03/27 14:26:38;;;;;;;8.52;7.30;;;;;;;;;;5057808;28;20040;-79
2022/03/27 14:29:07;;;;;;;12.02;7.78;;;;;;;;;;5080561;28;20075;-78
2022/03/27 14:31:35;;;;;;;9.07;7.57;;;;;;;;;;5083194;28;20469;-79
2022/03/27 14:34:06;;;;;;;7.28;6.55;;;;;;;;;;5081851;28;20459;-78
2022/03/27 14:36:33;;;;;;;8.05;7.35;;;;;;;;;;5080406;28;20044;-79
2022/03/27 14:39:01;;;;;;;8.10;7.30;;;;;;;;;;5068244;28;20302;-78
2022/03/27 14:41:28;;;;;;;10.20;7.13;;;;;;;;;;5068188;28;20039;-79
2022/03/27 14:43:56;;;;;;;7.47;6.78;;;;;;;;;;5084405;28;20082;-78
2022/03/27 14:46:23;;;;;;;7.82;6.72;;;;;;;;;;5067979;28;20070;-79
2022/03/27 14:48:51;;;;;;;8.40;7.05;;;;;;;;;;5069598;28;20048;-79
2022/03/27 14:51:18;;;;;;;7.85;7.05;;;;;;;;;;5086597;28;20035;-78
2022/03/27 14:56:32;;;;;;;7.75;6.90;;;;;;;;;;5079462;28;20124;-79
2022/03/27 14:58:59;;;;;;;7.50;6.50;;;;;;;;;;5063476;28;20135;-78
2022/03/27 15:01:27;;;;;;;7.80;6.63;;;;;;;;;;5078234;28;20104;-78
2022/03/27 15:03:54;;;;;;;7.88;7.13;;;;;;;;;;5084490;28;20028;-80